sensor_id;sensor_type;location;lat;lon;timestamp;P1;durP1;ratioP1;P2;durP2;ratioP2
43837;SDS011;65998;46.256;7.534;2023-04-07T00:00:25;38.55;;;16.92;;
43837;SDS011;65998;46.256;7.534;2023-04-07T00:03:12;36.03;;;16.00;;
43837;SDS011;65998;46.256;7.534;2023-04-07T00:05:37;35.90;;;17.88;;
43837;SDS011;65998;46.256;7.534;2023-04-07T00:08:03;39.00;;;17.60;;
43837;SDS011;65998;46.256;7.534;2023-04-07T00:10:29;41.55;;;17.23;;
43837;SDS011;65998;46.256;7.534;2023-04-07T00:12:55;44.70;;;17.83;;
43837;SDS011;65998;46.256;7.534;2023-04-07T00:15:20;45.43;;;20.20;;
43837;SDS011;65998;46.256;7.534;2023-04-07T00:17:46;37.30;;;17.67;;
43837;SDS011;65998;46.256;7.534;2023-04-07T00:20:12;44.37;;;18.10;;
43837;SDS011;65998;46.256;7.534;2023-04-07T00:22:38;40.83;;;17.40;;
43837;SDS011;65998;46.256;7.534;2023-04-07T00:25:04;40.43;;;18.97;;
43837;SDS011;65998;46.256;7.534;2023-04-07T00:27:30;41.17;;;17.83;;
43837;SDS011;65998;46.256;7.534;2023-04-07T00:29:56;37.20;;;18.13;;
43837;SDS011;65998;46.256;7.534;2023-04-07T00:32:22;40.53;;;18.70;;
43837;SDS011;65998;46.256;7.534;2023-04-07T00:34:47;40.00;;;18.83;;
43837;SDS011;65998;46.256;7.534;2023-04-07T00:37:13;40.13;;;18.88;;
43837;SDS011;65998;46.256;7.534;2023-04-07T00:39:39;40.30;;;18.25;;
43837;SDS011;65998;46.256;7.534;2023-04-07T00:42:05;38.03;;;17.77;;
43837;SDS011;65998;46.256;7.534;2023-04-07T00:44:31;39.60;;;17.75;;
43837;SDS011;65998;46.256;7.534;2023-04-07T00:46:57;40.80;;;19.52;;
43837;SDS011;65998;46.256;7.534;2023-04-07T00:49:24;41.03;;;19.27;;
43837;SDS011;65998;46.256;7.534;2023-04-07T00:51:50;40.13;;;18.60;;
43837;SDS011;65998;46.256;7.534;2023-04-07T00:54:16;44.38;;;19.33;;
43837;SDS011;65998;46.256;7.534;2023-04-07T00:56:43;39.33;;;18.15;;
43837;SDS011;65998;46.256;7.534;2023-04-07T00:59:09;39.10;;;18.13;;
43837;SDS011;65998;46.256;7.534;2023-04-07T01:04:31;40.50;;;18.20;;
43837;SDS011;65998;46.256;7.534;2023-04-07T01:07:03;35.42;;;17.13;;
43837;SDS011;65998;46.256;7.534;2023-04-07T01:09:42;42.22;;;18.40;;
43837;SDS011;65998;46.256;7.534;2023-04-07T01:12:17;40.67;;;18.08;;
43837;SDS011;65998;46.256;7.534;2023-04-07T01:14:54;36.72;;;17.73;;
43837;SDS011;65998;46.256;7.534;2023-04-07T01:17:24;36.75;;;17.33;;
43837;SDS011;65998;46.256;7.534;2023-04-07T01:19:54;35.83;;;17.33;;
43837;SDS011;65998;46.256;7.534;2023-04-07T01:22:36;36.63;;;17.05;;
43837;SDS011;65998;46.256;7.534;2023-04-07T01:30:17;35.80;;;17.08;;
43837;SDS011;65998;46.256;7.534;2023-04-07T01:32:44;34.80;;;16.10;;
43837;SDS011;65998;46.256;7.534;2023-04-07T01:35:14;34.45;;;16.17;;
43837;SDS011;65998;46.256;7.534;2023-04-07T01:37:42;36.38;;;17.35;;
43837;SDS011;65998;46.256;7.534;2023-04-07T01:40:10;33.65;;;16.02;;
43837;SDS011;65998;46.256;7.534;2023-04-07T01:42:37;35.65;;;15.90;;
43837;SDS011;65998;46.256;7.534;2023-04-07T01:45:04;33.60;;;15.68;;
43837;SDS011;65998;46.256;7.534;2023-04-07T01:47:31;35.75;;;16.73;;
43837;SDS011;65998;46.256;7.534;2023-04-07T01:49:58;34.30;;;15.90;;
43837;SDS011;65998;46.256;7.534;2023-04-07T01:52:27;33.53;;;14.88;;
43837;SDS011;65998;46.256;7.534;2023-04-07T01:54:53;34.97;;;15.82;;
43837;SDS011;65998;46.256;7.534;2023-04-07T01:57:19;34.67;;;15.93;;
43837;SDS011;65998;46.256;7.534;2023-04-07T01:59:45;33.17;;;16.00;;
43837;SDS011;65998;46.256;7.534;2023-04-07T02:02:11;32.88;;;15.98;;
43837;SDS011;65998;46.256;7.534;2023-04-07T02:04:39;33.55;;;15.88;;
43837;SDS011;65998;46.256;7.534;2023-04-07T02:07:14;31.55;;;15.13;;
43837;SDS011;65998;46.256;7.534;2023-04-07T02:09:46;31.48;;;15.30;;
43837;SDS011;65998;46.256;7.534;2023-04-07T02:12:14;28.23;;;14.17;;
43837;SDS011;65998;46.256;7.534;2023-04-07T02:14:41;34.70;;;15.07;;
43837;SDS011;65998;46.256;7.534;2023-04-07T02:17:08;32.00;;;14.60;;
43837;SDS011;65998;46.256;7.534;2023-04-07T02:19:34;32.58;;;14.38;;
43837;SDS011;65998;46.256;7.534;2023-04-07T02:22:02;30.40;;;14.23;;
43837;SDS011;65998;46.256;7.534;2023-04-07T02:24:29;33.67;;;14.50;;
43837;SDS011;65998;46.256;7.534;2023-04-07T02:26:55;28.63;;;13.70;;
43837;SDS011;65998;46.256;7.534;2023-04-07T02:29:20;29.77;;;13.75;;
43837;SDS011;65998;46.256;7.534;2023-04-07T02:31:46;31.87;;;14.07;;
43837;SDS011;65998;46.256;7.534;2023-04-07T02:34:12;30.50;;;13.73;;
43837;SDS011;65998;46.256;7.534;2023-04-07T02:36:38;30.10;;;13.03;;
43837;SDS011;65998;46.256;7.534;2023-04-07T02:39:03;26.55;;;12.52;;
43837;SDS011;65998;46.256;7.534;2023-04-07T02:41:29;28.08;;;12.48;;
43837;SDS011;65998;46.256;7.534;2023-04-07T02:43:55;27.30;;;12.63;;
43837;SDS011;65998;46.256;7.534;2023-04-07T02:46:21;27.52;;;12.20;;
43837;SDS011;65998;46.256;7.534;2023-04-07T02:48:47;25.30;;;12.10;;
43837;SDS011;65998;46.256;7.534;2023-04-07T02:51:13;28.15;;;12.85;;
43837;SDS011;65998;46.256;7.534;2023-04-07T02:53:38;26.33;;;12.40;;
43837;SDS011;65998;46.256;7.534;2023-04-07T02:56:04;26.88;;;12.20;;
43837;SDS011;65998;46.256;7.534;2023-04-07T02:58:30;24.23;;;12.10;;
43837;SDS011;65998;46.256;7.534;2023-04-07T03:00:56;23.50;;;11.27;;
43837;SDS011;65998;46.256;7.534;2023-04-07T03:03:21;25.45;;;12.18;;
43837;SDS011;65998;46.256;7.534;2023-04-07T03:05:47;23.90;;;11.30;;
43837;SDS011;65998;46.256;7.534;2023-04-07T03:08:13;24.52;;;11.75;;
43837;SDS011;65998;46.256;7.534;2023-04-07T03:10:39;23.98;;;11.35;;
43837;SDS011;65998;46.256;7.534;2023-04-07T03:13:05;24.30;;;10.90;;
43837;SDS011;65998;46.256;7.534;2023-04-07T03:15:31;23.65;;;10.77;;
43837;SDS011;65998;46.256;7.534;2023-04-07T03:17:57;24.43;;;10.93;;
43837;SDS011;65998;46.256;7.534;2023-04-07T03:20:23;23.10;;;10.85;;
43837;SDS011;65998;46.256;7.534;2023-04-07T03:22:48;22.00;;;10.67;;
43837;SDS011;65998;46.256;7.534;2023-04-07T03:25:14;22.52;;;10.35;;
43837;SDS011;65998;46.256;7.534;2023-04-07T03:27:40;20.77;;;10.05;;
43837;SDS011;65998;46.256;7.534;2023-04-07T03:30:06;21.90;;;9.97;;
43837;SDS011;65998;46.256;7.534;2023-04-07T03:32:32;21.55;;;10.13;;
43837;SDS011;65998;46.256;7.534;2023-04-07T03:34:58;20.30;;;9.70;;
43837;SDS011;65998;46.256;7.534;2023-04-07T03:37:24;20.73;;;9.50;;
43837;SDS011;65998;46.256;7.534;2023-04-07T03:39:50;21.73;;;9.60;;
43837;SDS011;65998;46.256;7.534;2023-04-07T03:42:15;18.73;;;9.10;;
43837;SDS011;65998;46.256;7.534;2023-04-07T03:44:41;21.40;;;9.98;;
43837;SDS011;65998;46.256;7.534;2023-04-07T03:47:07;19.00;;;8.90;;
43837;SDS011;65998;46.256;7.534;2023-04-07T03:49:33;19.85;;;8.57;;
43837;SDS011;65998;46.256;7.534;2023-04-07T03:51:58;19.05;;;9.55;;
43837;SDS011;65998;46.256;7.534;2023-04-07T03:54:24;19.07;;;8.40;;
43837;SDS011;65998;46.256;7.534;2023-04-07T03:56:50;18.30;;;8.57;;
43837;SDS011;65998;46.256;7.534;2023-04-07T03:59:16;15.57;;;7.83;;
43837;SDS011;65998;46.256;7.534;2023-04-07T04:01:42;17.58;;;8.07;;
43837;SDS011;65998;46.256;7.534;2023-04-07T04:04:08;17.00;;;8.18;;
43837;SDS011;65998;46.256;7.534;2023-04-07T04:06:33;17.47;;;7.80;;
43837;SDS011;65998;46.256;7.534;2023-04-07T04:08:59;16.33;;;7.65;;
43837;SDS011;65998;46.256;7.534;2023-04-07T04:11:25;16.30;;;8.03;;
43837;SDS011;65998;46.256;7.534;2023-04-07T04:13:51;15.95;;;7.60;;
43837;SDS011;65998;46.256;7.534;2023-04-07T04:16:16;17.33;;;7.47;;
43837;SDS011;65998;46.256;7.534;2023-04-07T04:18:42;14.40;;;7.28;;
43837;SDS011;65998;46.256;7.534;2023-04-07T04:21:08;16.10;;;7.17;;
43837;SDS011;65998;46.256;7.534;2023-04-07T04:23:34;17.38;;;7.13;;
43837;SDS011;65998;46.256;7.534;2023-04-07T04:25:59;15.13;;;6.95;;
43837;SDS011;65998;46.256;7.534;2023-04-07T04:28:26;14.00;;;6.80;;
43837;SDS011;65998;46.256;7.534;2023-04-07T04:30:51;13.85;;;6.93;;
43837;SDS011;65998;46.256;7.534;2023-04-07T04:33:17;13.02;;;6.28;;
43837;SDS011;65998;46.256;7.534;2023-04-07T04:35:43;15.57;;;6.68;;
43837;SDS011;65998;46.256;7.534;2023-04-07T04:38:10;15.48;;;6.95;;
43837;SDS011;65998;46.256;7.534;2023-04-07T04:40:36;13.33;;;6.73;;
43837;SDS011;65998;46.256;7.534;2023-04-07T04:43:02;12.95;;;6.32;;
43837;SDS011;65998;46.256;7.534;2023-04-07T04:45:27;13.90;;;6.17;;
43837;SDS011;65998;46.256;7.534;2023-04-07T04:47:53;14.93;;;6.43;;
43837;SDS011;65998;46.256;7.534;2023-04-07T04:50:19;13.00;;;6.03;;
43837;SDS011;65998;46.256;7.534;2023-04-07T04:52:45;11.83;;;5.70;;
43837;SDS011;65998;46.256;7.534;2023-04-07T04:55:11;12.02;;;5.72;;
43837;SDS011;65998;46.256;7.534;2023-04-07T04:57:37;12.45;;;5.97;;
43837;SDS011;65998;46.256;7.534;2023-04-07T05:00:02;12.25;;;5.35;;
43837;SDS011;65998;46.256;7.534;2023-04-07T05:02:29;11.45;;;5.43;;
43837;SDS011;65998;46.256;7.534;2023-04-07T05:04:54;12.20;;;5.67;;
43837;SDS011;65998;46.256;7.534;2023-04-07T05:07:20;13.43;;;5.38;;
43837;SDS011;65998;46.256;7.534;2023-04-07T05:09:46;10.77;;;5.20;;
43837;SDS011;65998;46.256;7.534;2023-04-07T05:12:12;9.38;;;4.85;;
43837;SDS011;65998;46.256;7.534;2023-04-07T05:14:38;11.00;;;5.13;;
43837;SDS011;65998;46.256;7.534;2023-04-07T05:17:04;11.50;;;5.60;;
43837;SDS011;65998;46.256;7.534;2023-04-07T05:19:29;10.13;;;4.93;;
43837;SDS011;65998;46.256;7.534;2023-04-07T05:21:55;10.15;;;4.80;;
43837;SDS011;65998;46.256;7.534;2023-04-07T05:24:21;10.60;;;5.15;;
43837;SDS011;65998;46.256;7.534;2023-04-07T05:26:47;11.97;;;4.70;;
43837;SDS011;65998;46.256;7.534;2023-04-07T05:29:12;10.50;;;4.65;;
43837;SDS011;65998;46.256;7.534;2023-04-07T05:31:38;9.15;;;4.63;;
43837;SDS011;65998;46.256;7.534;2023-04-07T05:34:04;9.63;;;4.43;;
43837;SDS011;65998;46.256;7.534;2023-04-07T05:36:30;10.02;;;4.28;;
43837;SDS011;65998;46.256;7.534;2023-04-07T05:38:56;8.70;;;3.83;;
43837;SDS011;65998;46.256;7.534;2023-04-07T05:41:22;8.90;;;3.80;;
43837;SDS011;65998;46.256;7.534;2023-04-07T05:43:47;8.90;;;4.17;;
43837;SDS011;65998;46.256;7.534;2023-04-07T05:46:13;9.93;;;3.78;;
43837;SDS011;65998;46.256;7.534;2023-04-07T05:48:39;10.30;;;3.40;;
43837;SDS011;65998;46.256;7.534;2023-04-07T05:51:05;11.32;;;3.92;;
43837;SDS011;65998;46.256;7.534;2023-04-07T05:53:30;8.20;;;3.47;;
43837;SDS011;65998;46.256;7.534;2023-04-07T05:55:56;6.90;;;3.30;;
43837;SDS011;65998;46.256;7.534;2023-04-07T05:58:22;8.32;;;3.42;;
43837;SDS011;65998;46.256;7.534;2023-04-07T06:00:48;10.95;;;3.58;;
43837;SDS011;65998;46.256;7.534;2023-04-07T06:03:14;8.98;;;3.00;;
43837;SDS011;65998;46.256;7.534;2023-04-07T06:05:41;6.70;;;3.20;;
43837;SDS011;65998;46.256;7.534;2023-04-07T06:08:06;8.37;;;3.90;;
43837;SDS011;65998;46.256;7.534;2023-04-07T06:10:32;6.68;;;3.08;;
43837;SDS011;65998;46.256;7.534;2023-04-07T06:12:58;7.90;;;2.83;;
43837;SDS011;65998;46.256;7.534;2023-04-07T06:15:24;7.43;;;3.20;;
43837;SDS011;65998;46.256;7.534;2023-04-07T06:17:49;6.30;;;2.70;;
43837;SDS011;65998;46.256;7.534;2023-04-07T06:20:15;6.45;;;2.85;;
43837;SDS011;65998;46.256;7.534;2023-04-07T06:22:41;6.72;;;3.05;;
43837;SDS011;65998;46.256;7.534;2023-04-07T06:25:07;7.50;;;3.33;;
43837;SDS011;65998;46.256;7.534;2023-04-07T06:27:34;7.80;;;3.42;;
43837;SDS011;65998;46.256;7.534;2023-04-07T06:30:00;6.00;;;3.00;;
43837;SDS011;65998;46.256;7.534;2023-04-07T06:32:26;6.13;;;3.00;;
43837;SDS011;65998;46.256;7.534;2023-04-07T06:34:52;7.30;;;2.70;;
43837;SDS011;65998;46.256;7.534;2023-04-07T06:37:17;6.35;;;2.72;;
43837;SDS011;65998;46.256;7.534;2023-04-07T06:39:43;6.90;;;2.57;;
43837;SDS011;65998;46.256;7.534;2023-04-07T06:42:09;5.32;;;2.38;;
43837;SDS011;65998;46.256;7.534;2023-04-07T06:44:35;5.80;;;2.75;;
43837;SDS011;65998;46.256;7.534;2023-04-07T06:47:01;5.37;;;2.20;;
43837;SDS011;65998;46.256;7.534;2023-04-07T06:49:27;5.22;;;2.40;;
43837;SDS011;65998;46.256;7.534;2023-04-07T06:51:52;4.67;;;2.17;;
43837;SDS011;65998;46.256;7.534;2023-04-07T06:54:19;5.30;;;2.22;;
43837;SDS011;65998;46.256;7.534;2023-04-07T06:56:44;5.13;;;2.30;;
43837;SDS011;65998;46.256;7.534;2023-04-07T06:59:10;5.82;;;2.30;;
43837;SDS011;65998;46.256;7.534;2023-04-07T07:01:36;6.50;;;2.50;;
43837;SDS011;65998;46.256;7.534;2023-04-07T07:04:02;5.00;;;1.97;;
43837;SDS011;65998;46.256;7.534;2023-04-07T07:06:28;5.55;;;2.45;;
43837;SDS011;65998;46.256;7.534;2023-04-07T07:08:54;5.53;;;2.20;;
43837;SDS011;65998;46.256;7.534;2023-04-07T07:11:19;7.43;;;2.40;;
43837;SDS011;65998;46.256;7.534;2023-04-07T07:13:45;5.35;;;2.25;;
43837;SDS011;65998;46.256;7.534;2023-04-07T07:16:11;5.53;;;2.20;;
43837;SDS011;65998;46.256;7.534;2023-04-07T07:18:37;7.63;;;2.30;;
43837;SDS011;65998;46.256;7.534;2023-04-07T07:21:03;5.13;;;2.33;;
43837;SDS011;65998;46.256;7.534;2023-04-07T07:23:29;5.65;;;2.58;;
43837;SDS011;65998;46.256;7.534;2023-04-07T07:25:55;5.47;;;2.40;;
43837;SDS011;65998;46.256;7.534;2023-04-07T07:28:21;5.47;;;2.47;;
43837;SDS011;65998;46.256;7.534;2023-04-07T07:30:47;4.95;;;2.08;;
43837;SDS011;65998;46.256;7.534;2023-04-07T07:33:13;5.90;;;2.23;;
43837;SDS011;65998;46.256;7.534;2023-04-07T07:35:39;5.00;;;2.22;;
43837;SDS011;65998;46.256;7.534;2023-04-07T07:38:05;5.07;;;2.42;;
43837;SDS011;65998;46.256;7.534;2023-04-07T07:40:31;4.60;;;2.20;;
43837;SDS011;65998;46.256;7.534;2023-04-07T07:42:58;5.63;;;2.20;;
43837;SDS011;65998;46.256;7.534;2023-04-07T07:45:24;7.55;;;2.10;;
43837;SDS011;65998;46.256;7.534;2023-04-07T07:47:51;5.25;;;2.20;;
43837;SDS011;65998;46.256;7.534;2023-04-07T07:50:16;4.97;;;2.00;;
43837;SDS011;65998;46.256;7.534;2023-04-07T07:52:43;4.60;;;2.10;;
43837;SDS011;65998;46.256;7.534;2023-04-07T07:55:09;5.38;;;2.47;;
43837;SDS011;65998;46.256;7.534;2023-04-07T07:57:36;4.80;;;2.20;;
43837;SDS011;65998;46.256;7.534;2023-04-07T08:00:02;5.10;;;2.08;;
43837;SDS011;65998;46.256;7.534;2023-04-07T08:02:29;4.53;;;1.88;;
43837;SDS011;65998;46.256;7.534;2023-04-07T08:04:56;4.40;;;1.98;;
43837;SDS011;65998;46.256;7.534;2023-04-07T08:07:23;3.77;;;1.60;;
43837;SDS011;65998;46.256;7.534;2023-04-07T08:09:49;4.43;;;2.15;;
43837;SDS011;65998;46.256;7.534;2023-04-07T08:12:15;4.68;;;1.88;;
43837;SDS011;65998;46.256;7.534;2023-04-07T08:14:41;5.97;;;1.80;;
43837;SDS011;65998;46.256;7.534;2023-04-07T08:17:07;4.05;;;1.52;;
43837;SDS011;65998;46.256;7.534;2023-04-07T08:19:33;6.23;;;2.00;;
43837;SDS011;65998;46.256;7.534;2023-04-07T08:21:59;4.35;;;1.52;;
43837;SDS011;65998;46.256;7.534;2023-04-07T08:24:27;4.15;;;1.70;;
43837;SDS011;65998;46.256;7.534;2023-04-07T08:26:53;3.35;;;1.38;;
43837;SDS011;65998;46.256;7.534;2023-04-07T08:29:19;5.70;;;1.70;;
43837;SDS011;65998;46.256;7.534;2023-04-07T08:31:45;3.83;;;1.63;;
43837;SDS011;65998;46.256;7.534;2023-04-07T08:34:11;9.27;;;2.00;;
43837;SDS011;65998;46.256;7.534;2023-04-07T08:36:37;4.35;;;1.70;;
43837;SDS011;65998;46.256;7.534;2023-04-07T08:39:03;3.80;;;1.67;;
43837;SDS011;65998;46.256;7.534;2023-04-07T08:41:32;3.55;;;1.58;;
43837;SDS011;65998;46.256;7.534;2023-04-07T08:44:02;3.30;;;1.30;;
43837;SDS011;65998;46.256;7.534;2023-04-07T08:46:29;3.20;;;1.35;;
43837;SDS011;65998;46.256;7.534;2023-04-07T08:48:55;4.80;;;1.60;;
43837;SDS011;65998;46.256;7.534;2023-04-07T08:51:27;3.40;;;1.40;;
43837;SDS011;65998;46.256;7.534;2023-04-07T08:54:06;4.85;;;1.52;;
43837;SDS011;65998;46.256;7.534;2023-04-07T08:56:38;3.25;;;1.40;;
43837;SDS011;65998;46.256;7.534;2023-04-07T08:59:07;3.83;;;1.50;;
43837;SDS011;65998;46.256;7.534;2023-04-07T09:01:36;3.30;;;1.30;;
43837;SDS011;65998;46.256;7.534;2023-04-07T09:04:03;4.65;;;1.27;;
43837;SDS011;65998;46.256;7.534;2023-04-07T09:06:30;3.50;;;1.40;;
43837;SDS011;65998;46.256;7.534;2023-04-07T09:08:56;2.97;;;1.30;;
43837;SDS011;65998;46.256;7.534;2023-04-07T09:11:24;3.13;;;1.20;;
43837;SDS011;65998;46.256;7.534;2023-04-07T09:13:54;4.22;;;1.33;;
43837;SDS011;65998;46.256;7.534;2023-04-07T09:16:21;5.57;;;1.55;;
43837;SDS011;65998;46.256;7.534;2023-04-07T09:18:47;5.75;;;1.40;;
43837;SDS011;65998;46.256;7.534;2023-04-07T09:21:14;4.03;;;1.35;;
43837;SDS011;65998;46.256;7.534;2023-04-07T09:23:41;4.25;;;1.33;;
43837;SDS011;65998;46.256;7.534;2023-04-07T09:28:43;5.75;;;1.30;;
43837;SDS011;65998;46.256;7.534;2023-04-07T09:31:11;7.22;;;1.50;;
43837;SDS011;65998;46.256;7.534;2023-04-07T09:33:37;3.57;;;1.30;;
43837;SDS011;65998;46.256;7.534;2023-04-07T09:36:04;5.80;;;1.33;;
43837;SDS011;65998;46.256;7.534;2023-04-07T09:38:32;3.65;;;1.20;;
43837;SDS011;65998;46.256;7.534;2023-04-07T09:41:09;6.47;;;1.40;;
43837;SDS011;65998;46.256;7.534;2023-04-07T09:43:36;3.28;;;1.00;;
43837;SDS011;65998;46.256;7.534;2023-04-07T09:46:08;3.22;;;1.23;;
43837;SDS011;65998;46.256;7.534;2023-04-07T09:48:44;2.92;;;1.02;;
43837;SDS011;65998;46.256;7.534;2023-04-07T09:51:12;2.60;;;1.15;;
43837;SDS011;65998;46.256;7.534;2023-04-07T09:53:46;4.05;;;1.40;;
43837;SDS011;65998;46.256;7.534;2023-04-07T09:56:14;3.72;;;1.30;;
43837;SDS011;65998;46.256;7.534;2023-04-07T09:58:42;4.22;;;1.42;;
43837;SDS011;65998;46.256;7.534;2023-04-07T10:01:10;6.28;;;1.90;;
43837;SDS011;65998;46.256;7.534;2023-04-07T10:03:36;5.45;;;1.30;;
43837;SDS011;65998;46.256;7.534;2023-04-07T10:06:03;4.80;;;1.52;;
43837;SDS011;65998;46.256;7.534;2023-04-07T10:08:30;3.92;;;1.38;;
43837;SDS011;65998;46.256;7.534;2023-04-07T10:11:02;4.18;;;1.45;;
43837;SDS011;65998;46.256;7.534;2023-04-07T10:13:29;4.65;;;1.08;;
43837;SDS011;65998;46.256;7.534;2023-04-07T10:15:56;5.43;;;1.20;;
43837;SDS011;65998;46.256;7.534;2023-04-07T10:18:32;3.35;;;1.20;;
43837;SDS011;65998;46.256;7.534;2023-04-07T10:21:02;4.55;;;1.40;;
43837;SDS011;65998;46.256;7.534;2023-04-07T10:26:34;4.60;;;1.17;;
43837;SDS011;65998;46.256;7.534;2023-04-07T10:29:04;2.83;;;1.10;;
43837;SDS011;65998;46.256;7.534;2023-04-07T10:31:32;5.03;;;1.05;;
43837;SDS011;65998;46.256;7.534;2023-04-07T10:33:59;4.88;;;1.20;;
43837;SDS011;65998;46.256;7.534;2023-04-07T10:36:25;4.63;;;1.20;;
43837;SDS011;65998;46.256;7.534;2023-04-07T10:41:35;7.53;;;1.70;;
43837;SDS011;65998;46.256;7.534;2023-04-07T10:44:02;5.73;;;1.40;;
43837;SDS011;65998;46.256;7.534;2023-04-07T10:49:27;7.93;;;1.73;;
43837;SDS011;65998;46.256;7.534;2023-04-07T10:54:37;8.52;;;1.58;;
43837;SDS011;65998;46.256;7.534;2023-04-07T10:57:11;7.50;;;1.52;;
43837;SDS011;65998;46.256;7.534;2023-04-07T10:59:38;5.03;;;1.40;;
43837;SDS011;65998;46.256;7.534;2023-04-07T11:04:39;4.65;;;1.52;;
43837;SDS011;65998;46.256;7.534;2023-04-07T11:07:07;8.27;;;1.50;;
43837;SDS011;65998;46.256;7.534;2023-04-07T11:09:33;4.00;;;1.20;;
43837;SDS011;65998;46.256;7.534;2023-04-07T11:12:00;8.13;;;1.50;;
43837;SDS011;65998;46.256;7.534;2023-04-07T11:16:52;7.68;;;1.50;;
43837;SDS011;65998;46.256;7.534;2023-04-07T11:19:18;4.95;;;1.35;;
43837;SDS011;65998;46.256;7.534;2023-04-07T11:21:44;6.82;;;1.23;;
43837;SDS011;65998;46.256;7.534;2023-04-07T11:24:27;4.00;;;1.20;;
43837;SDS011;65998;46.256;7.534;2023-04-07T11:26:56;5.50;;;1.33;;
43837;SDS011;65998;46.256;7.534;2023-04-07T11:29:31;8.60;;;1.48;;
43837;SDS011;65998;46.256;7.534;2023-04-07T11:31:58;5.10;;;1.10;;
43837;SDS011;65998;46.256;7.534;2023-04-07T11:34:28;4.40;;;1.10;;
43837;SDS011;65998;46.256;7.534;2023-04-07T11:36:55;5.07;;;1.20;;
43837;SDS011;65998;46.256;7.534;2023-04-07T11:39:21;4.65;;;1.17;;
43837;SDS011;65998;46.256;7.534;2023-04-07T11:41:48;4.95;;;1.02;;
43837;SDS011;65998;46.256;7.534;2023-04-07T11:44:14;5.43;;;1.40;;
43837;SDS011;65998;46.256;7.534;2023-04-07T11:49:22;7.32;;;1.13;;
43837;SDS011;65998;46.256;7.534;2023-04-07T11:51:57;5.05;;;0.98;;
43837;SDS011;65998;46.256;7.534;2023-04-07T11:57:09;4.80;;;1.00;;
43837;SDS011;65998;46.256;7.534;2023-04-07T11:59:35;4.10;;;0.90;;
43837;SDS011;65998;46.256;7.534;2023-04-07T12:02:01;4.90;;;1.00;;
43837;SDS011;65998;46.256;7.534;2023-04-07T12:04:26;6.50;;;1.07;;
43837;SDS011;65998;46.256;7.534;2023-04-07T12:06:52;3.70;;;0.70;;
43837;SDS011;65998;46.256;7.534;2023-04-07T12:09:25;6.13;;;0.90;;
43837;SDS011;65998;46.256;7.534;2023-04-07T12:11:58;5.38;;;0.93;;
43837;SDS011;65998;46.256;7.534;2023-04-07T12:14:24;5.88;;;0.90;;
43837;SDS011;65998;46.256;7.534;2023-04-07T12:16:51;10.00;;;1.10;;
43837;SDS011;65998;46.256;7.534;2023-04-07T12:19:16;7.03;;;1.10;;
43837;SDS011;65998;46.256;7.534;2023-04-07T12:21:42;7.78;;;1.42;;
43837;SDS011;65998;46.256;7.534;2023-04-07T12:24:08;4.32;;;1.30;;
43837;SDS011;65998;46.256;7.534;2023-04-07T12:26:34;6.70;;;1.50;;
43837;SDS011;65998;46.256;7.534;2023-04-07T12:29:00;6.20;;;1.60;;
43837;SDS011;65998;46.256;7.534;2023-04-07T12:31:26;6.32;;;1.52;;
43837;SDS011;65998;46.256;7.534;2023-04-07T12:33:51;6.80;;;1.10;;
43837;SDS011;65998;46.256;7.534;2023-04-07T12:36:17;9.23;;;1.42;;
43837;SDS011;65998;46.256;7.534;2023-04-07T12:38:43;5.07;;;1.53;;
43837;SDS011;65998;46.256;7.534;2023-04-07T12:41:09;4.00;;;1.25;;
43837;SDS011;65998;46.256;7.534;2023-04-07T12:43:35;4.50;;;1.20;;
43837;SDS011;65998;46.256;7.534;2023-04-07T12:46:01;6.97;;;1.00;;
43837;SDS011;65998;46.256;7.534;2023-04-07T12:48:26;7.45;;;1.45;;
43837;SDS011;65998;46.256;7.534;2023-04-07T12:50:52;5.37;;;1.40;;
43837;SDS011;65998;46.256;7.534;2023-04-07T12:53:19;5.13;;;1.40;;
43837;SDS011;65998;46.256;7.534;2023-04-07T12:55:45;5.70;;;1.98;;
43837;SDS011;65998;46.256;7.534;2023-04-07T12:58:12;4.97;;;1.80;;
43837;SDS011;65998;46.256;7.534;2023-04-07T13:00:38;4.15;;;1.88;;
43837;SDS011;65998;46.256;7.534;2023-04-07T13:03:03;7.25;;;1.90;;
43837;SDS011;65998;46.256;7.534;2023-04-07T13:05:29;3.42;;;1.73;;
43837;SDS011;65998;46.256;7.534;2023-04-07T13:07:55;7.67;;;2.47;;
43837;SDS011;65998;46.256;7.534;2023-04-07T13:10:21;10.00;;;1.90;;
43837;SDS011;65998;46.256;7.534;2023-04-07T13:12:47;14.17;;;2.90;;
43837;SDS011;65998;46.256;7.534;2023-04-07T13:15:15;5.68;;;2.00;;
43837;SDS011;65998;46.256;7.534;2023-04-07T13:17:41;9.73;;;1.90;;
43837;SDS011;65998;46.256;7.534;2023-04-07T13:20:07;8.18;;;2.00;;
43837;SDS011;65998;46.256;7.534;2023-04-07T13:22:33;8.83;;;1.90;;
43837;SDS011;65998;46.256;7.534;2023-04-07T13:24:59;7.93;;;1.83;;
43837;SDS011;65998;46.256;7.534;2023-04-07T13:27:24;7.90;;;2.83;;
43837;SDS011;65998;46.256;7.534;2023-04-07T13:29:50;8.45;;;3.65;;
43837;SDS011;65998;46.256;7.534;2023-04-07T13:32:16;6.65;;;3.42;;
43837;SDS011;65998;46.256;7.534;2023-04-07T13:34:42;6.80;;;3.75;;
43837;SDS011;65998;46.256;7.534;2023-04-07T13:37:08;8.87;;;4.30;;
43837;SDS011;65998;46.256;7.534;2023-04-07T13:39:34;7.72;;;3.65;;
43837;SDS011;65998;46.256;7.534;2023-04-07T13:42:00;8.77;;;4.30;;
43837;SDS011;65998;46.256;7.534;2023-04-07T13:44:27;10.52;;;3.92;;
43837;SDS011;65998;46.256;7.534;2023-04-07T13:46:53;8.00;;;3.65;;
43837;SDS011;65998;46.256;7.534;2023-04-07T13:49:20;6.93;;;3.60;;
43837;SDS011;65998;46.256;7.534;2023-04-07T13:51:46;10.07;;;3.40;;
43837;SDS011;65998;46.256;7.534;2023-04-07T13:54:12;6.07;;;3.00;;
43837;SDS011;65998;46.256;7.534;2023-04-07T13:56:38;6.90;;;2.83;;
43837;SDS011;65998;46.256;7.534;2023-04-07T13:59:05;7.35;;;3.17;;
43837;SDS011;65998;46.256;7.534;2023-04-07T14:01:32;7.03;;;3.00;;
43837;SDS011;65998;46.256;7.534;2023-04-07T14:03:58;9.43;;;2.80;;
43837;SDS011;65998;46.256;7.534;2023-04-07T14:06:24;9.30;;;3.22;;
43837;SDS011;65998;46.256;7.534;2023-04-07T14:08:50;10.67;;;3.20;;
43837;SDS011;65998;46.256;7.534;2023-04-07T14:11:16;8.48;;;3.33;;
43837;SDS011;65998;46.256;7.534;2023-04-07T14:13:45;9.80;;;2.95;;
43837;SDS011;65998;46.256;7.534;2023-04-07T14:16:11;10.90;;;3.40;;
43837;SDS011;65998;46.256;7.534;2023-04-07T14:18:36;10.00;;;3.22;;
43837;SDS011;65998;46.256;7.534;2023-04-07T14:21:03;10.33;;;2.70;;
43837;SDS011;65998;46.256;7.534;2023-04-07T14:23:29;13.52;;;3.38;;
43837;SDS011;65998;46.256;7.534;2023-04-07T14:25:55;11.35;;;3.60;;
43837;SDS011;65998;46.256;7.534;2023-04-07T14:28:21;14.27;;;3.10;;
43837;SDS011;65998;46.256;7.534;2023-04-07T14:30:47;8.65;;;3.20;;
43837;SDS011;65998;46.256;7.534;2023-04-07T14:33:13;5.88;;;3.13;;
43837;SDS011;65998;46.256;7.534;2023-04-07T14:35:39;9.70;;;3.63;;
43837;SDS011;65998;46.256;7.534;2023-04-07T14:38:05;10.00;;;3.00;;
43837;SDS011;65998;46.256;7.534;2023-04-07T14:40:30;9.68;;;3.17;;
43837;SDS011;65998;46.256;7.534;2023-04-07T14:42:56;10.13;;;3.07;;
43837;SDS011;65998;46.256;7.534;2023-04-07T14:45:22;6.90;;;2.70;;
43837;SDS011;65998;46.256;7.534;2023-04-07T14:47:48;8.75;;;2.83;;
43837;SDS011;65998;46.256;7.534;2023-04-07T14:50:14;5.83;;;2.63;;
43837;SDS011;65998;46.256;7.534;2023-04-07T14:52:40;6.22;;;2.70;;
43837;SDS011;65998;46.256;7.534;2023-04-07T14:55:05;5.90;;;2.63;;
43837;SDS011;65998;46.256;7.534;2023-04-07T14:57:32;9.15;;;2.40;;
43837;SDS011;65998;46.256;7.534;2023-04-07T14:59:58;7.38;;;2.28;;
43837;SDS011;65998;46.256;7.534;2023-04-07T15:02:24;12.93;;;2.67;;
43837;SDS011;65998;46.256;7.534;2023-04-07T15:04:50;7.07;;;2.37;;
43837;SDS011;65998;46.256;7.534;2023-04-07T15:07:16;9.98;;;2.25;;